createdAt,value
2023-01-06T00:02:02.457Z,100640.63
2023-01-06T00:07:03.983Z,100634.94
2023-01-06T00:12:06.929Z,100629.56
2023-01-06T00:17:08.788Z,100651.56
2023-01-06T00:22:10.278Z,100654.50
2023-01-06T00:27:11.684Z,100655.09
2023-01-06T00:32:13.086Z,100657.38
2023-01-06T00:37:14.678Z,100669.72
2023-01-06T00:42:16.193Z,100674.16
2023-01-06T00:47:18.131Z,100682.19
2023-01-06T00:52:19.533Z,100693.88
2023-01-06T00:57:20.950Z,100700.28
2023-01-06T01:02:22.625Z,100709.00
2023-01-06T01:07:24.131Z,100718.56
2023-01-06T01:12:25.583Z,100712.47
2023-01-06T01:17:30.410Z,100722.81
2023-01-06T01:22:32.208Z,100724.31
2023-01-06T01:27:33.625Z,100732.16
2023-01-06T01:32:35.054Z,100731.59
2023-01-06T01:37:36.500Z,100745.47
2023-01-06T01:42:38.017Z,100746.03
2023-01-06T01:47:56.526Z,100737.53
2023-01-06T01:53:07.596Z,100743.50
2023-01-06T01:58:18.335Z,100751.69
2023-01-06T02:03:21.777Z,100753.88
2023-01-06T02:08:34.937Z,100760.94
2023-01-06T02:13:38.944Z,100766.72
2023-01-06T02:18:54.080Z,100762.31
2023-01-06T02:24:12.897Z,100747.31
2023-01-06T02:29:29.456Z,100757.69
2023-01-06T02:34:41.652Z,100744.16
2023-01-06T02:40:18.408Z,100749.25
2023-01-06T02:45:40.258Z,100748.00
2023-01-06T02:50:50.295Z,100757.13
2023-01-06T02:55:54.891Z,100751.19
2023-01-06T03:01:05.364Z,100743.16
2023-01-06T03:06:11.807Z,100747.09
2023-01-06T03:11:13.911Z,100754.84
2023-01-06T03:16:16.414Z,100750.66
2023-01-06T03:21:22.414Z,100748.63
2023-01-06T03:26:24.986Z,100745.91
2023-01-06T03:31:37.442Z,100739.69
2023-01-06T03:36:53.298Z,100758.53
2023-01-06T03:42:35.611Z,100755.22
2023-01-06T03:48:04.637Z,100753.03
2023-01-06T03:53:34.180Z,100762.59
2023-01-06T03:58:38.743Z,100757.19
2023-01-06T04:03:40.356Z,100754.38
2023-01-06T04:08:41.870Z,100763.88
2023-01-06T04:13:43.294Z,100763.63
2023-01-06T04:18:45.010Z,100757.69
2023-01-06T04:23:46.457Z,100736.03
2023-01-06T04:28:47.887Z,100746.44
2023-01-06T04:33:49.293Z,100724.75
2023-01-06T04:38:50.936Z,100737.53
2023-01-06T04:43:52.539Z,100739.16
2023-01-06T04:48:53.969Z,100738.97
2023-01-06T04:53:55.935Z,100739.25
2023-01-06T04:58:57.844Z,100743.66
2023-01-06T05:03:59.353Z,100746.31
2023-01-06T05:09:00.860Z,100742.72
2023-01-06T05:14:02.280Z,100751.47
2023-01-06T05:19:04.133Z,100753.06
2023-01-06T05:24:05.794Z,100742.31
2023-01-06T05:29:07.230Z,100738.09
2023-01-06T05:34:10.628Z,100751.25
2023-01-06T05:39:12.044Z,100736.94
2023-01-06T05:44:13.524Z,100728.81
2023-01-06T05:49:14.939Z,100739.75
2023-01-06T05:54:16.472Z,100754.72
2023-01-06T05:59:17.882Z,100744.22
2023-01-06T06:04:19.298Z,100750.97
2023-01-06T06:09:20.779Z,100736.84
2023-01-06T06:14:22.246Z,100746.59
2023-01-06T06:19:23.734Z,100745.47
2023-01-06T06:24:25.143Z,100748.00
2023-01-06T06:29:26.566Z,100751.69
2023-01-06T06:34:28.016Z,100764.28
2023-01-06T06:39:29.905Z,100765.44
2023-01-06T06:44:31.354Z,100762.03
2023-01-06T06:49:32.792Z,100760.22
2023-01-06T06:54:34.350Z,100755.44
2023-01-06T06:59:35.770Z,100766.25
2023-01-06T07:04:37.288Z,100757.16
2023-01-06T07:09:38.847Z,100764.25
2023-01-06T07:14:40.282Z,100770.25
2023-01-06T07:19:41.706Z,100756.72
2023-01-06T07:24:43.154Z,100764.75
2023-01-06T07:29:44.573Z,100768.00
2023-01-06T07:34:46.001Z,100772.03
2023-01-06T07:39:47.438Z,100769.75
2023-01-06T07:44:48.949Z,100765.44
2023-01-06T07:49:50.347Z,100741.09
2023-01-06T07:54:51.752Z,100732.22
2023-01-06T07:59:53.290Z,100730.69
2023-01-06T08:04:54.696Z,100727.81
2023-01-06T08:09:56.106Z,100725.47
2023-01-06T08:14:57.534Z,100722.88
2023-01-06T08:19:58.951Z,100722.91
2023-01-06T08:25:00.388Z,100718.13
2023-01-06T08:30:01.858Z,100718.84
2023-01-06T08:35:03.395Z,100715.50
2023-01-06T08:40:05.413Z,100700.97
2023-01-06T08:45:07.997Z,100702.34
2023-01-06T08:50:09.455Z,100686.16
2023-01-06T08:55:10.948Z,100681.81
2023-01-06T09:00:13.111Z,100682.03
2023-01-06T09:05:14.883Z,100688.94
2023-01-06T09:10:17.352Z,100698.88
2023-01-06T09:15:18.851Z,100698.59
2023-01-06T09:20:20.286Z,100705.97
2023-01-06T09:25:22.724Z,100680.34
2023-01-06T09:30:25.281Z,100671.22
2023-01-06T09:35:26.718Z,100670.94
2023-01-06T09:40:58.039Z,100681.06
2023-01-06T09:46:02.675Z,100672.56
2023-01-06T09:51:06.824Z,100668.91
2023-01-06T09:56:15.101Z,100662.28
2023-01-06T10:01:22.498Z,100671.97
2023-01-06T10:07:02.496Z,100668.44
2023-01-06T10:12:35.399Z,100651.34
2023-01-06T10:18:10.603Z,100640.78
2023-01-06T10:23:21.085Z,100625.97
2023-01-06T10:28:30.304Z,100601.69
2023-01-06T10:33:35.830Z,100610.91
2023-01-06T10:38:49.683Z,100588.28
2023-01-06T10:43:51.837Z,100577.81
2023-01-06T10:48:53.259Z,100581.72
2023-01-06T10:53:57.831Z,100566.22
2023-01-06T10:59:08.385Z,100562.31
2023-01-06T11:04:15.388Z,100550.56
2023-01-06T11:09:45.196Z,100526.03
2023-01-06T11:14:57.578Z,100523.09
2023-01-06T11:20:13.405Z,100505.88
2023-01-06T11:25:20.569Z,100510.28
2023-01-06T11:30:26.827Z,100491.78
2023-01-06T11:35:33.531Z,100476.47
2023-01-06T11:40:37.587Z,100470.97
2023-01-06T11:45:49.346Z,100463.09
2023-01-06T11:50:54.014Z,100460.03
2023-01-06T11:56:07.504Z,100447.25
2023-01-06T12:01:33.465Z,100438.03
2023-01-06T12:06:39.771Z,100430.53
2023-01-06T12:11:45.859Z,100423.25
2023-01-06T12:16:52.441Z,100404.44
2023-01-06T12:21:55.158Z,100424.19
2023-01-06T12:26:57.149Z,100406.94
2023-01-06T12:32:19.674Z,100394.34
2023-01-06T12:37:38.066Z,100399.78
2023-01-06T12:42:49.431Z,100373.56
2023-01-06T12:47:56.335Z,100372.41
2023-01-06T12:53:20.460Z,100352.88
2023-01-06T12:58:29.035Z,100342.13
2023-01-06T13:03:39.988Z,100356.03
2023-01-06T13:09:14.989Z,100347.88
2023-01-06T13:14:38.435Z,100344.44
2023-01-06T13:19:57.777Z,100338.50
2023-01-06T13:25:31.329Z,100334.47
2023-01-06T13:31:11.280Z,100342.53
2023-01-06T13:36:52.993Z,100330.25
2023-01-06T13:41:57.664Z,100325.84
2023-01-06T13:47:08.083Z,100331.03
2023-01-06T13:52:30.770Z,100320.75
2023-01-06T13:57:35.573Z,100311.25
2023-01-06T14:02:39.615Z,100313.38
2023-01-06T14:07:48.972Z,100302.72
2023-01-06T14:12:50.362Z,100306.84
2023-01-06T14:17:52.125Z,100305.09
2023-01-06T14:23:07.607Z,100295.91
2023-01-06T14:28:27.714Z,100282.03
2023-01-06T14:33:39.862Z,100275.28
2023-01-06T14:38:46.292Z,100279.81
2023-01-06T14:43:54.320Z,100277.69
2023-01-06T14:49:01.235Z,100286.72
2023-01-06T14:54:08.828Z,100281.25
2023-01-06T14:59:15.764Z,100286.22
2023-01-06T15:04:26.972Z,100295.34
2023-01-06T15:09:29.038Z,100291.00
2023-01-06T15:14:33.535Z,100288.44
2023-01-06T15:19:35.428Z,100286.03
2023-01-06T15:24:42.708Z,100286.22
2023-01-06T15:29:55.407Z,100292.66
2023-01-06T15:34:59.418Z,100299.19
2023-01-06T15:40:01.931Z,100297.06
2023-01-06T15:45:06.837Z,100303.19
2023-01-06T15:50:18.721Z,100302.03
2023-01-06T15:55:25.034Z,100305.19
2023-01-06T16:00:31.157Z,100296.66
2023-01-06T16:05:42.831Z,100306.44
2023-01-06T16:10:46.135Z,100301.44
2023-01-06T16:15:55.677Z,100299.56
2023-01-06T16:20:58.426Z,100304.59
2023-01-06T16:26:10.535Z,100302.38
2023-01-06T16:31:13.853Z,100301.13
2023-01-06T16:36:16.926Z,100301.25
2023-01-06T16:41:19.542Z,100301.03
2023-01-06T16:46:25.839Z,100298.34
2023-01-06T16:51:28.750Z,100299.69
2023-01-06T16:56:30.182Z,100304.09
2023-01-06T17:01:31.752Z,100309.47
2023-01-06T17:06:33.231Z,100311.75
2023-01-06T17:11:38.045Z,100314.22
2023-01-06T17:16:41.838Z,100308.84
2023-01-06T17:21:43.336Z,100310.56
2023-01-06T17:26:51.420Z,100319.63
2023-01-06T17:31:55.656Z,100322.91
2023-01-06T17:36:58.540Z,100328.28
2023-01-06T17:42:12.149Z,100324.81
2023-01-06T17:47:16.395Z,100340.13
2023-01-06T17:52:21.322Z,100342.97
2023-01-06T17:57:22.737Z,100334.53
2023-01-06T18:02:43.975Z,100335.44
2023-01-06T18:07:45.368Z,100340.81
2023-01-06T18:12:46.820Z,100351.59
2023-01-06T18:17:48.333Z,100351.16
2023-01-06T18:22:49.755Z,100358.81
2023-01-06T18:27:51.505Z,100366.97
2023-01-06T18:32:53.316Z,100369.81
2023-01-06T18:37:59.190Z,100370.66
2023-01-06T18:43:17.029Z,100379.38
2023-01-06T18:48:24.966Z,100374.63
2023-01-06T18:53:32.333Z,100380.25
2023-01-06T18:58:37.169Z,100373.34
2023-01-06T19:03:41.527Z,100363.44
2023-01-06T19:08:45.866Z,100373.69
2023-01-06T19:13:48.030Z,100374.84
2023-01-06T19:18:49.554Z,100374.84
2023-01-06T19:23:50.989Z,100381.78
2023-01-06T19:28:59.419Z,100392.34
2023-01-06T19:34:03.294Z,100389.50
2023-01-06T19:39:39.600Z,100394.69
2023-01-06T19:44:41.453Z,100390.38
2023-01-06T19:49:46.511Z,100396.09
2023-01-06T19:54:47.909Z,100401.69
2023-01-06T19:59:49.324Z,100408.28
2023-01-06T20:04:50.793Z,100421.63
2023-01-06T20:09:53.867Z,100417.75
2023-01-06T20:14:55.273Z,100411.28
2023-01-06T20:19:56.699Z,100426.72
2023-01-06T20:24:58.127Z,100429.06
2023-01-06T20:29:59.592Z,100439.84
2023-01-06T20:35:01.057Z,100439.44
2023-01-06T20:40:02.622Z,100459.78
2023-01-06T20:45:04.722Z,100459.56
2023-01-06T20:50:07.458Z,100461.06
2023-01-06T20:55:09.619Z,100472.25
2023-01-06T21:00:12.727Z,100462.09
2023-01-06T21:05:14.232Z,100477.97
2023-01-06T21:10:15.741Z,100487.75
2023-01-06T21:15:17.466Z,100494.00
2023-01-06T21:20:18.889Z,100504.13
2023-01-06T21:25:20.378Z,100510.59
2023-01-06T21:30:22.631Z,100513.22
2023-01-06T21:35:24.277Z,100516.72
2023-01-06T21:40:25.854Z,100513.13
2023-01-06T21:45:27.370Z,100512.56
2023-01-06T21:50:30.303Z,100524.59
2023-01-06T21:55:31.845Z,100536.56
2023-01-06T22:00:33.308Z,100540.72
2023-01-06T22:05:34.936Z,100540.16
2023-01-06T22:10:40.154Z,100532.47
2023-01-06T22:15:42.427Z,100544.94
2023-01-06T22:20:44.446Z,100542.84
2023-01-06T22:25:45.975Z,100549.94
2023-01-06T22:30:47.406Z,100545.03
2023-01-06T22:35:48.941Z,100549.44
2023-01-06T22:40:50.403Z,100556.72
2023-01-06T22:45:56.983Z,100553.31
2023-01-06T22:51:02.924Z,100558.28
2023-01-06T22:56:10.243Z,100567.31
2023-01-06T23:01:11.798Z,100577.13
2023-01-06T23:06:16.252Z,100576.34
2023-01-06T23:11:19.562Z,100568.66
2023-01-06T23:16:22.571Z,100575.31
2023-01-06T23:21:27.098Z,100576.38
2023-01-06T23:26:29.997Z,100573.22
2023-01-06T23:31:35.337Z,100581.59
2023-01-06T23:36:38.290Z,100575.94
2023-01-06T23:41:40.020Z,100584.28
2023-01-06T23:46:42.544Z,100586.19
2023-01-06T23:51:44.462Z,100584.63
2023-01-06T23:56:45.881Z,100589.16
